Time;durP1;ratioP1;P1;durP2;ratioP2;P2;SDS_P1;SDS_P2;PMS_P1;PMS_P2;Temp;Humidity;BMP_temperature;BMP_pressure;BME280_temperature;BME280_humidity;BME280_pressure;Samples;Min_cycle;Max_cycle;Signal;HPM_P1;HPM_P2
2022/09/15 04:00:15;;;;;;;5.97;3.35;;;;;;;20.29;91.94;99450.31;5606301;31;78962;-56
2022/09/15 04:03:18;;;;;;;4.72;3.30;;;;;;;20.29;91.94;99450.31;5583415;32;32050;-57
2022/09/15 04:06:21;;;;;;;7.43;3.17;;;;;;;19.83;93.81;99450.44;5583210;32;33758;-57
2022/09/15 04:09:24;;;;;;;3.22;2.80;;;;;;;19.83;93.44;99458.59;5587898;31;33654;-56
2022/09/15 04:12:28;;;;;;;4.25;2.80;;;;;;;19.84;94.14;99455.53;5602624;31;33637;-57
2022/09/15 04:15:30;;;;;;;4.30;3.15;;;;;;;19.87;92.99;99471.09;5602781;31;34518;-57
2022/09/15 04:18:34;;;;;;;4.30;2.80;;;;;;;19.92;93.13;99459.91;5602814;31;33678;-57
2022/09/15 04:21:36;;;;;;;3.42;2.65;;;;;;;19.97;92.31;99447.13;5602643;31;33561;-56
2022/09/15 04:24:38;;;;;;;6.60;2.92;;;;;;;19.97;92.08;99460.75;5602499;31;34146;-57
2022/09/15 04:27:40;;;;;;;3.58;2.65;;;;;;;19.96;92.48;99457.25;5602610;31;35190;-57
2022/09/15 04:30:42;;;;;;;4.80;2.85;;;;;;;19.96;92.06;99454.50;5589823;31;34436;-57
2022/09/15 04:33:45;;;;;;;5.05;2.67;;;;;;;20.00;91.90;99460.00;5602520;31;33648;-57
2022/09/15 04:36:48;;;;;;;4.47;3.00;;;;;;;19.98;91.46;99476.72;5602069;31;33695;-57
2022/09/15 04:39:51;;;;;;;5.60;2.70;;;;;;;19.95;91.55;99480.16;5602449;31;33662;-56
2022/09/15 04:42:53;;;;;;;4.07;2.80;;;;;;;19.94;91.44;99482.09;5602429;31;34221;-56
2022/09/15 04:45:55;;;;;;;3.47;2.47;;;;;;;19.94;91.10;99486.75;5601384;31;33233;-56
2022/09/15 04:48:57;;;;;;;4.93;2.47;;;;;;;19.95;90.91;99491.03;5602166;31;33960;-57
2022/09/15 04:52:00;;;;;;;5.93;2.83;;;;;;;19.92;90.59;99475.44;5602465;31;33695;-57
2022/09/15 04:55:02;;;;;;;4.20;2.60;;;;;;;19.95;90.46;99472.78;5600680;31;33817;-56
2022/09/15 04:58:04;;;;;;;3.55;2.28;;;;;;;20.01;89.84;99467.03;5597272;31;34229;-56
2022/09/15 05:01:12;;;;;;;5.72;2.78;;;;;;;20.05;89.42;99465.16;5581786;31;33876;-56
2022/09/15 05:04:15;;;;;;;5.95;2.50;;;;;;;20.10;89.68;99465.63;5584991;31;33559;-56
2022/09/15 05:07:17;;;;;;;8.32;3.00;;;;;;;20.13;89.63;99459.47;5608190;31;33696;-56
2022/09/15 05:10:21;;;;;;;11.20;2.37;;;;;;;20.20;89.62;99466.94;5587236;31;33619;-57
2022/09/15 05:13:23;;;;;;;4.55;2.53;;;;;;;20.20;89.60;99480.56;5588873;31;33626;-57
2022/09/15 05:16:27;;;;;;;3.62;2.40;;;;;;;20.22;89.76;99482.87;5588548;31;33955;-57
2022/09/15 05:19:30;;;;;;;4.70;2.58;;;;;;;20.27;89.86;99488.81;5587518;31;33836;-57
2022/09/15 05:22:32;;;;;;;6.75;2.97;;;;;;;20.31;89.97;99492.38;5587376;31;33570;-57
2022/09/15 05:25:34;;;;;;;5.53;3.00;;;;;;;20.31;90.58;99502.47;5588166;31;33203;-58
2022/09/15 05:28:36;;;;;;;8.45;2.92;;;;;;;20.32;91.46;99512.97;5573001;31;34026;-56
2022/09/15 05:31:38;;;;;;;6.32;3.00;;;;;;;20.35;91.29;99514.97;5585990;31;33730;-57
2022/09/15 05:34:41;;;;;;;6.97;2.90;;;;;;;20.34;92.23;99507.97;5586091;31;33552;-57
2022/09/15 05:37:43;;;;;;;9.45;3.10;;;;;;;20.38;92.60;99532.50;5586928;31;33179;-57
2022/09/15 05:40:45;;;;;;;7.37;3.15;;;;;;;20.36;92.89;99529.34;5577232;31;34175;-56
2022/09/15 05:43:49;;;;;;;5.65;3.00;;;;;;;20.36;92.98;99523.91;5581963;31;34327;-54
2022/09/15 05:46:51;;;;;;;8.82;3.80;;;;;;;20.37;93.23;99523.56;5586651;31;33464;-54
2022/09/15 05:49:54;;;;;;;28.95;3.95;;;;;;;20.35;93.78;99517.69;5581174;31;33719;-54
2022/09/15 05:52:56;;;;;;;7.55;3.53;;;;;;;20.32;94.40;99532.03;5586404;31;33314;-54
2022/09/15 05:56:08;;;;;;;31.95;5.03;;;;;;;20.38;94.05;99522.41;5575042;31;33868;-54
2022/09/15 05:59:12;;;;;;;78.12;10.48;;;;;;;20.40;93.98;99514.66;5581459;31;33636;-54
2022/09/15 06:02:14;;;;;;;6.80;3.40;;;;;;;20.46;94.03;99519.78;5573436;31;33713;-54
2022/09/15 06:05:16;;;;;;;8.93;3.33;;;;;;;20.52;93.70;99521.84;5571360;31;33527;-54
2022/09/15 06:08:18;;;;;;;6.72;3.40;;;;;;;20.51;93.60;99524.94;5567558;31;33846;-54
2022/09/15 06:11:27;;;;;;;5.62;3.30;;;;;;;20.47;93.80;99524.09;5585975;31;33673;-54
2022/09/15 06:14:29;;;;;;;10.95;3.60;;;;;;;20.48;94.06;99531.09;5586423;31;33746;-54
2022/09/15 06:17:31;;;;;;;22.58;5.12;;;;;;;20.50;93.74;99526.84;5587048;31;33298;-54
2022/09/15 06:20:34;;;;;;;17.60;4.45;;;;;;;20.56;93.73;99527.34;5569142;31;33714;-54
2022/09/15 06:23:37;;;;;;;9.48;3.55;;;;;;;20.58;94.26;99530.50;5574688;31;33209;-54
2022/09/15 06:26:39;;;;;;;9.10;3.90;;;;;;;20.60;94.16;99528.97;5571936;31;33603;-54
2022/09/15 06:29:41;;;;;;;12.50;3.67;;;;;;;20.64;94.29;99527.06;5575154;31;33847;-54
2022/09/15 06:32:44;;;;;;;10.93;3.70;;;;;;;20.70;93.59;99540.38;5585620;31;33269;-54
2022/09/15 06:35:49;;;;;;;;;;;;;;;20.71;93.72;99550.13;5582455;31;33652;-54
2022/09/15 06:38:51;;;;;;;14.23;3.87;;;;;;;20.73;93.67;99548.59;5583518;31;34063;-54
2022/09/15 06:41:54;;;;;;;9.15;3.83;;;;;;;20.76;93.90;99544.34;5585691;31;33202;-54
2022/09/15 06:45:05;;;;;;;7.00;3.78;;;;;;;20.76;93.66;99553.31;5585355;31;33716;-54
2022/09/15 06:48:07;;;;;;;10.48;3.97;;;;;;;20.81;93.20;99552.19;5574152;31;33735;-54
2022/09/15 06:51:30;;;;;;;10.95;3.92;;;;;;;20.83;93.36;99556.12;5578241;31;33412;-54
2022/09/15 06:54:32;;;;;;;8.00;3.85;;;;;;;20.84;93.48;99554.19;5577597;31;33591;-55
2022/09/15 06:57:35;;;;;;;9.18;3.90;;;;;;;20.83;93.47;99556.12;5579129;31;34335;-54
2022/09/15 07:00:37;;;;;;;9.13;3.60;;;;;;;20.84;93.51;99552.25;5574466;31;33592;-54
2022/09/15 07:03:42;;;;;;;9.20;4.10;;;;;;;20.85;93.83;99556.53;5585199;31;34073;-54
2022/09/15 07:06:44;;;;;;;6.35;3.87;;;;;;;20.88;94.10;99555.78;5579850;31;34028;-54
2022/09/15 07:09:46;;;;;;;8.32;3.17;;;;;;;20.91;94.22;99561.66;5575610;31;34263;-55
2022/09/15 07:12:50;;;;;;;8.25;3.58;;;;;;;20.92;94.17;99560.50;5585911;31;33116;-54
2022/09/15 07:15:54;;;;;;;8.57;3.78;;;;;;;20.95;94.50;99573.38;5586620;31;33638;-55
2022/09/15 07:19:00;;;;;;;6.30;3.72;;;;;;;20.97;96.91;99571.88;5569492;31;33191;-55
2022/09/15 07:22:02;;;;;;;8.63;4.65;;;;;;;21.00;96.36;99581.25;5568750;31;34301;-54
2022/09/15 07:25:04;;;;;;;8.32;3.90;;;;;;;21.07;96.30;99584.06;5586032;31;33642;-54
2022/09/15 07:28:06;;;;;;;9.00;4.10;;;;;;;21.14;96.41;99583.38;5586699;31;34363;-54
2022/09/15 07:31:12;;;;;;;11.73;3.90;;;;;;;21.17;96.39;99588.09;5586809;31;34078;-54
2022/09/15 07:34:14;;;;;;;9.82;3.97;;;;;;;21.22;96.68;99583.06;5586289;31;33618;-54
2022/09/15 07:37:17;;;;;;;8.38;3.45;;;;;;;21.31;95.25;99590.97;5578225;31;34012;-54
2022/09/15 07:40:20;;;;;;;9.55;3.60;;;;;;;21.40;93.68;99583.31;5579328;31;32948;-54
2022/09/15 07:43:23;;;;;;;6.07;3.70;;;;;;;21.49;91.04;99592.00;5577218;31;33594;-55
2022/09/15 07:46:28;;;;;;;10.05;3.20;;;;;;;21.48;89.95;99590.41;5567799;31;33648;-54
2022/09/15 07:49:30;;;;;;;9.15;3.35;;;;;;;21.53;90.18;99594.75;5572501;31;33339;-54
2022/09/15 07:52:32;;;;;;;7.45;2.97;;;;;;;21.55;89.32;99587.75;5583336;31;33134;-54
2022/09/15 07:55:34;;;;;;;9.00;3.08;;;;;;;21.58;89.50;99588.97;5580454;31;33787;-54
2022/09/15 07:58:37;;;;;;;6.37;2.58;;;;;;;21.62;88.75;99587.06;5579300;31;34539;-54
2022/09/15 08:01:39;;;;;;;5.65;2.75;;;;;;;21.65;87.35;99583.56;5579642;31;33814;-54
2022/09/15 08:04:42;;;;;;;5.28;2.72;;;;;;;21.71;85.51;99592.22;5576768;31;33343;-54
2022/09/15 08:07:44;;;;;;;7.80;2.65;;;;;;;21.71;85.21;99597.69;5580872;31;33615;-54
2022/09/15 08:10:46;;;;;;;7.18;3.42;;;;;;;21.74;85.95;99586.00;5573893;31;34456;-54
2022/09/15 08:13:49;;;;;;;7.82;2.85;;;;;;;21.76;83.50;99594.63;5581700;31;33791;-54
2022/09/15 08:16:52;;;;;;;9.85;2.60;;;;;;;21.79;84.17;99599.34;5573177;31;33962;-54
2022/09/15 08:19:54;;;;;;;14.40;2.90;;;;;;;21.87;82.79;99597.44;5579825;31;33172;-54
2022/09/15 08:22:56;;;;;;;6.50;2.58;;;;;;;21.92;82.71;99602.53;5579651;31;33524;-55
2022/09/15 08:25:59;;;;;;;6.03;2.47;;;;;;;22.04;81.05;99602.28;5582537;31;34221;-54
2022/09/15 08:29:01;;;;;;;6.50;3.12;;;;;;;22.09;80.73;99596.50;5580608;31;33012;-54
2022/09/15 08:32:04;;;;;;;10.32;2.50;;;;;;;22.17;80.81;99600.09;5580453;31;33604;-54
2022/09/15 08:35:07;;;;;;;5.18;2.25;;;;;;;22.21;79.48;99593.47;5571575;31;33630;-55
2022/09/15 08:38:09;;;;;;;10.18;2.50;;;;;;;22.26;79.14;99582.22;5573654;31;32937;-55
2022/09/15 08:41:26;;;;;;;6.45;2.30;;;;;;;22.34;78.05;99580.31;5584924;31;33283;-54
2022/09/15 08:44:37;;;;;;;14.23;3.03;;;;;;;22.44;79.13;99573.38;5584258;31;33931;-54
2022/09/15 08:47:43;;;;;;;4.70;2.00;;;;;;;22.59;76.44;99572.31;5585224;31;33623;-54
2022/09/15 08:50:51;;;;;;;5.37;2.50;;;;;;;22.62;76.88;99573.50;5575979;31;32306;-54
2022/09/15 08:54:01;;;;;;;7.05;2.45;;;;;;;22.63;77.13;99567.66;5576301;31;33578;-54
2022/09/15 08:57:05;;;;;;;6.90;2.60;;;;;;;22.65;75.95;99564.53;5577238;31;33670;-55
2022/09/15 09:00:14;;;;;;;5.05;2.33;;;;;;;22.65;76.49;99567.25;5574617;31;33744;-55
2022/09/15 09:03:16;;;;;;;8.90;2.50;;;;;;;22.69;76.66;99565.34;5578351;31;32108;-54
2022/09/15 09:06:40;;;;;;;8.15;2.40;;;;;;;22.78;76.01;99554.88;5566516;31;33327;-54
2022/09/15 09:10:23;;;;;;;13.02;2.30;;;;;;;22.84;75.06;99541.59;5576265;31;33253;-55
2022/09/15 09:13:48;;;;;;;5.15;2.05;;;;;;;22.89;74.42;99538.53;5570638;31;33975;-54
2022/09/15 09:17:09;;;;;;;6.10;2.10;;;;;;;22.98;73.00;99545.22;5581762;31;33814;-54
2022/09/15 09:20:31;;;;;;;28.35;3.08;;;;;;;23.06;72.44;99531.59;5585428;31;33748;-54
2022/09/15 09:23:48;;;;;;;10.43;1.75;;;;;;;23.13;71.46;99537.06;5579416;31;34380;-54
2022/09/15 09:26:54;;;;;;;5.72;1.98;;;;;;;23.25;68.79;99520.34;5574793;31;33864;-54
2022/09/15 09:30:06;;;;;;;6.95;2.28;;;;;;;23.39;66.09;99511.38;5576384;31;33616;-55
2022/09/15 09:33:36;;;;;;;7.22;1.60;;;;;;;23.43;67.53;99515.66;5569562;31;33833;-54
2022/09/15 09:36:39;;;;;;;32.67;4.30;;;;;;;23.57;64.97;99523.13;5569528;31;33853;-54
2022/09/15 09:39:42;;;;;;;15.07;2.03;;;;;;;23.60;65.14;99527.81;5567227;31;34810;-55
2022/09/15 09:42:44;;;;;;;4.72;1.52;;;;;;;23.64;62.92;99522.34;5574123;31;32440;-55
2022/09/15 09:45:46;;;;;;;2.47;1.40;;;;;;;23.75;59.98;99523.19;5578474;31;33775;-54
2022/09/15 09:48:57;;;;;;;5.57;1.33;;;;;;;23.97;59.98;99523.94;5587751;31;33805;-54
2022/09/15 09:52:02;;;;;;;3.90;1.40;;;;;;;24.14;58.93;99514.97;5568373;31;34378;-54
2022/09/15 09:55:24;;;;;;;7.03;1.67;;;;;;;24.15;60.72;99502.84;5587768;31;34097;-54
2022/09/15 09:58:26;;;;;;;3.25;1.42;;;;;;;24.16;58.29;99506.34;5587179;31;33826;-54
2022/09/15 10:01:29;;;;;;;5.40;1.50;;;;;;;24.17;58.16;99499.69;5576931;31;34270;-54
2022/09/15 10:04:31;;;;;;;4.18;1.40;;;;;;;24.31;57.05;99488.72;5568539;31;34377;-54
2022/09/15 10:07:40;;;;;;;5.75;1.42;;;;;;;24.41;57.05;99486.41;5584513;31;33335;-54
2022/09/15 10:10:51;;;;;;;8.82;1.95;;;;;;;24.35;58.55;99475.81;5586594;31;33653;-54
2022/09/15 10:13:55;;;;;;;4.43;1.35;;;;;;;24.36;59.58;99463.66;5586720;31;33754;-55
2022/09/15 10:17:19;;;;;;;2.90;1.20;;;;;;;24.29;58.82;99457.44;5578628;31;33614;-55
2022/09/15 10:20:27;;;;;;;4.53;1.40;;;;;;;24.28;57.50;99456.66;5575151;31;33677;-54
2022/09/15 10:23:31;;;;;;;6.35;1.52;;;;;;;24.23;58.16;99448.81;5584946;31;33611;-54
2022/09/15 10:26:33;;;;;;;6.15;1.70;;;;;;;24.26;57.30;99433.56;5584666;31;34357;-54
2022/09/15 10:29:38;;;;;;;2.95;1.42;;;;;;;24.25;57.64;99430.06;5587396;31;34586;-54
2022/09/15 10:32:41;;;;;;;4.12;1.40;;;;;;;24.26;57.07;99425.34;5585786;31;34378;-54
2022/09/15 10:35:44;;;;;;;3.92;1.10;;;;;;;24.37;55.89;99421.41;5587093;31;34402;-54
2022/09/15 10:39:23;;;;;;;2.85;1.40;;;;;;;24.51;56.20;99414.34;5586952;31;33615;-55
2022/09/15 10:42:49;;;;;;;1.60;1.12;;;;;;;24.63;56.93;99416.63;5586934;31;33813;-55
2022/09/15 10:46:03;;;;;;;5.78;2.03;;;;;;;24.73;55.76;99424.00;5568322;31;33642;-54
2022/09/15 10:49:14;;;;;;;3.50;1.48;;;;;;;24.87;57.80;99419.63;5578814;31;33245;-54
2022/09/15 10:52:57;;;;;;;8.30;1.90;;;;;;;24.92;57.48;99416.50;5585944;31;33842;-55
2022/09/15 10:56:08;;;;;;;7.72;1.90;;;;;;;24.89;58.58;99420.81;5578145;31;34540;-56
2022/09/15 10:59:29;;;;;;;5.37;1.60;;;;;;;24.81;58.00;99422.81;5567242;32;33660;-55
2022/09/15 11:02:55;;;;;;;5.72;1.85;;;;;;;24.78;58.45;99434.56;5567008;32;34412;-55
2022/09/15 11:06:25;;;;;;;6.25;1.70;;;;;;;24.73;58.43;99432.22;5582214;31;33837;-56
2022/09/15 11:09:47;;;;;;;10.10;2.15;;;;;;;24.65;57.86;99443.66;5584580;31;33666;-56
2022/09/15 11:13:14;;;;;;;5.55;2.28;;;;;;;24.65;59.14;99427.19;5585065;31;34264;-55
2022/09/15 11:16:47;;;;;;;4.97;1.75;;;;;;;24.63;58.38;99433.06;5573551;31;34364;-56
2022/09/15 11:20:23;;;;;;;4.85;2.37;;;;;;;24.56;59.83;99433.09;5573185;31;33583;-55
2022/09/15 11:23:39;;;;;;;4.50;2.62;;;;;;;24.59;61.54;99424.88;5579111;31;33656;-55
2022/09/15 11:26:51;;;;;;;7.20;2.80;;;;;;;24.54;62.50;99430.00;5585991;31;33910;-56
2022/09/15 11:30:00;;;;;;;9.23;2.50;;;;;;;24.47;63.73;99428.06;5585255;31;33985;-55
2022/09/15 11:33:22;;;;;;;8.57;3.25;;;;;;;24.41;64.92;99421.44;5587184;31;33251;-55
2022/09/15 11:36:36;;;;;;;8.88;2.83;;;;;;;24.32;66.25;99421.81;5586328;31;33982;-55
2022/09/15 11:40:07;;;;;;;7.80;2.90;;;;;;;24.29;68.38;99417.13;5586088;31;33921;-56
2022/09/15 11:43:36;;;;;;;11.82;3.00;;;;;;;24.26;68.61;99403.44;5586223;31;34219;-55
2022/09/15 11:47:01;;;;;;;11.27;3.03;;;;;;;24.19;69.21;99398.00;5585499;31;33685;-55
2022/09/15 11:50:09;;;;;;;7.15;2.90;;;;;;;24.15;69.22;99379.62;5585291;31;34515;-55
2022/09/15 11:53:24;;;;;;;9.50;3.10;;;;;;;24.10;70.04;99368.28;5584730;31;33806;-55
2022/09/15 11:56:44;;;;;;;7.82;2.70;;;;;;;24.14;70.11;99358.13;5586760;31;34457;-55
2022/09/15 11:59:53;;;;;;;7.57;2.80;;;;;;;24.18;70.52;99347.16;5585217;31;33670;-55
2022/09/15 12:03:31;;;;;;;11.65;3.25;;;;;;;24.20;71.00;99342.03;5585110;31;33670;-55
2022/09/15 12:06:50;;;;;;;5.68;2.67;;;;;;;24.29;69.72;99358.84;5586383;31;34531;-55
2022/09/15 12:09:52;;;;;;;9.95;3.25;;;;;;;24.26;70.51;99363.13;5586510;31;33417;-55
2022/09/15 12:12:58;;;;;;;7.75;2.80;;;;;;;24.22;70.82;99369.81;5586792;31;33276;-56
2022/09/15 12:16:02;;;;;;;6.60;2.65;;;;;;;24.18;71.15;99374.53;5586597;31;33908;-55
2022/09/15 12:19:17;;;;;;;10.02;3.05;;;;;;;24.11;71.20;99375.34;5585450;31;33308;-55
2022/09/15 12:22:33;;;;;;;7.93;2.95;;;;;;;24.08;71.19;99376.91;5588669;31;33664;-56
2022/09/15 12:26:13;;;;;;;7.72;2.65;;;;;;;24.01;71.64;99365.19;5588354;31;33609;-55
2022/09/15 12:29:21;;;;;;;7.53;2.70;;;;;;;24.01;71.21;99346.03;5580060;31;33877;-55
2022/09/15 12:32:32;;;;;;;9.80;2.70;;;;;;;23.99;71.28;99343.69;5586370;31;34074;-56
2022/09/15 12:35:34;;;;;;;4.97;2.33;;;;;;;24.02;70.92;99331.16;5587351;31;34312;-55
2022/09/15 12:38:36;;;;;;;10.93;3.22;;;;;;;23.99;71.24;99334.69;5588970;31;33892;-55
2022/09/15 12:41:46;;;;;;;6.93;2.92;;;;;;;24.02;70.78;99326.47;5587380;31;33373;-55
2022/09/15 12:45:03;;;;;;;8.73;3.12;;;;;;;24.05;70.73;99330.37;5588901;31;33684;-56
2022/09/15 12:48:18;;;;;;;12.00;3.45;;;;;;;24.06;70.92;99331.94;5588787;31;33359;-56
2022/09/15 12:51:24;;;;;;;22.10;4.30;;;;;;;24.07;70.79;99301.44;5588759;31;33699;-55
2022/09/15 12:54:30;;;;;;;17.00;3.65;;;;;;;24.08;69.50;99285.78;5588714;31;33706;-56
2022/09/15 12:57:35;;;;;;;13.32;2.55;;;;;;;24.05;69.06;99290.09;5588916;31;33970;-55
2022/09/15 13:00:40;;;;;;;14.82;3.75;;;;;;;23.99;68.05;99310.06;5588795;31;34310;-55
2022/09/15 13:04:02;;;;;;;4.80;2.00;;;;;;;23.95;68.03;99312.03;5588878;31;34400;-56
2022/09/15 13:07:16;;;;;;;16.45;2.78;;;;;;;23.86;68.59;99392.59;5588611;31;33258;-55
2022/09/15 13:10:26;;;;;;;9.13;3.15;;;;;;;21.12;86.40;99437.37;5587790;31;33231;-55
2022/09/15 13:14:06;;;;;;;6.45;2.37;;;;;;;20.21;91.06;99380.66;5588625;31;34388;-55
2022/09/15 13:17:17;;;;;;;4.95;1.77;;;;;;;19.80;90.59;99359.50;5570102;31;33676;-55
2022/09/15 13:20:30;;;;;;;3.28;1.30;;;;;;;19.80;88.80;99367.66;5588205;31;34259;-55
2022/09/15 13:23:38;;;;;;;6.18;1.65;;;;;;;19.72;88.50;99379.56;5588798;31;33721;-56
2022/09/15 13:26:43;;;;;;;6.10;1.60;;;;;;;19.78;93.48;99372.66;5588082;31;33907;-55
2022/09/15 13:29:58;;;;;;;4.30;1.50;;;;;;;19.87;94.04;99359.59;5588282;31;33695;-55
2022/09/15 13:33:22;;;;;;;6.07;1.92;;;;;;;19.85;90.44;99370.06;5588204;31;33242;-56
2022/09/15 13:36:52;;;;;;;5.28;2.28;;;;;;;19.91;93.36;99375.97;5588163;31;33678;-55
2022/09/15 13:40:36;;;;;;;5.87;1.60;;;;;;;19.86;94.01;99376.28;5587345;31;33661;-55
2022/09/15 13:43:51;;;;;;;3.30;1.50;;;;;;;19.93;94.85;99379.91;5588892;31;34426;-55
2022/09/15 13:47:08;;;;;;;5.93;1.70;;;;;;;20.05;95.64;99373.44;5588245;31;33646;-56
2022/09/15 13:50:16;;;;;;;4.07;1.77;;;;;;;20.07;95.59;99367.63;5588116;31;33736;-55
2022/09/15 13:53:31;;;;;;;7.03;2.08;;;;;;;20.20;93.95;99363.53;5588254;31;33784;-55
2022/09/15 13:56:40;;;;;;;7.35;2.47;;;;;;;20.20;92.36;99371.69;5588510;31;34006;-55
2022/09/15 13:59:42;;;;;;;5.47;2.03;;;;;;;20.17;96.68;99359.59;5588248;31;33670;-55
2022/09/15 14:02:46;;;;;;;4.20;2.00;;;;;;;20.29;95.38;99352.34;5588301;31;34878;-55
2022/09/15 14:05:55;;;;;;;5.87;2.35;;;;;;;20.32;96.32;99359.78;5588428;31;33681;-55
2022/09/15 14:09:02;;;;;;;6.75;2.42;;;;;;;20.33;98.45;99362.16;5587957;31;34263;-56
2022/09/15 14:12:10;;;;;;;7.07;2.22;;;;;;;20.35;100.00;99359.03;5588213;31;33807;-55
2022/09/15 14:15:21;;;;;;;6.72;2.75;;;;;;;20.35;100.00;99354.38;5588201;31;33692;-55
2022/09/15 14:18:24;;;;;;;6.40;2.92;;;;;;;20.43;99.73;99349.81;5588220;31;34420;-56
2022/09/15 14:21:30;;;;;;;5.95;2.42;;;;;;;20.45;100.00;99346.72;5587658;31;34931;-55
2022/09/15 14:24:38;;;;;;;6.85;2.70;;;;;;;20.49;100.00;99348.31;5588362;31;34337;-55
2022/09/15 14:27:44;;;;;;;7.22;2.62;;;;;;;20.50;100.00;99336.28;5588002;31;33891;-55
2022/09/15 14:30:47;;;;;;;6.68;2.62;;;;;;;20.53;100.00;99353.81;5588124;31;33703;-55
2022/09/15 14:33:49;;;;;;;9.95;2.78;;;;;;;20.50;100.00;99363.50;5588256;31;33860;-55
2022/09/15 14:37:04;;;;;;;6.87;3.30;;;;;;;20.52;96.41;99377.53;5588595;31;34420;-55
2022/09/15 14:40:22;;;;;;;11.77;4.07;;;;;;;20.67;97.01;99383.19;5588098;31;34343;-55
2022/09/15 14:43:27;;;;;;;5.53;3.17;;;;;;;20.50;99.18;99390.72;5587275;31;33767;-55
2022/09/15 14:46:37;;;;;;;7.35;3.42;;;;;;;20.52;97.54;99387.66;5587965;31;34354;-55
2022/09/15 14:49:39;;;;;;;10.05;3.35;;;;;;;20.47;98.32;99369.69;5582146;31;34480;-55
2022/09/15 14:53:06;;;;;;;9.68;3.47;;;;;;;20.27;100.00;99368.28;5583517;31;34861;-55
2022/09/15 14:56:15;;;;;;;10.48;3.62;;;;;;;20.10;100.00;99405.00;5569414;31;34534;-55
2022/09/15 14:59:40;;;;;;;11.23;3.30;;;;;;;20.08;100.00;99432.56;5568536;32;34883;-55
2022/09/15 15:03:13;;;;;;;8.55;3.97;;;;;;;19.94;100.00;99430.41;5568904;32;33243;-55
2022/09/15 15:06:27;;;;;;;9.98;3.10;;;;;;;20.00;100.00;99406.41;5568797;32;33643;-55
2022/09/15 15:09:50;;;;;;;6.22;2.50;;;;;;;20.06;100.00;99396.75;5568876;32;33680;-55
2022/09/15 15:12:57;;;;;;;5.30;2.70;;;;;;;20.07;98.64;99408.44;5568486;32;33994;-55
2022/09/15 15:16:00;;;;;;;8.90;3.15;;;;;;;20.03;100.00;99434.78;5568659;32;33731;-55
2022/09/15 15:19:02;;;;;;;7.25;3.15;;;;;;;20.10;100.00;99443.09;5568566;32;34276;-55
2022/09/15 15:22:10;;;;;;;7.53;2.87;;;;;;;20.12;100.00;99430.66;5567134;32;34432;-55
2022/09/15 15:25:20;;;;;;;7.47;2.70;;;;;;;20.30;100.00;99394.75;5568689;32;33969;-55
2022/09/15 15:28:37;;;;;;;7.50;2.85;;;;;;;20.35;100.00;99387.03;5568446;32;34321;-55
2022/09/15 15:31:39;;;;;;;8.75;2.60;;;;;;;20.28;100.00;99389.69;5568220;32;33689;-55
2022/09/15 15:34:49;;;;;;;8.77;2.90;;;;;;;20.24;100.00;99385.34;5568605;32;33306;-55
2022/09/15 15:38:09;;;;;;;8.48;2.83;;;;;;;20.30;100.00;99409.16;5568710;32;33419;-55
